Stamford, NY (12167)

6:03 PM EDT on July 24, 2016 (GMT -0400)
Stamford Central School | | Change Station

Elev 1804 ft 42.41 °N, 74.62 °W | Updated 5 minutes ago

Scattered Clouds
Scattered Clouds
83.1 °F
Feels Like 83 °F
N
4.0
Wind Variable Wind from NNW

Today
High -- | Low -- °F
--% Chance of Precip.
Yesterday
High -- | Low -- °F
Precip. -- in
Pressure 29.95 in
Visibility 15.0 miles
Clouds Scattered Clouds 25000 ft
Heat Index 83 °F
Dew Point 59 °F
Humidity 44%
Rainfall 0.00 in
Snow Depth Not available.
5:43 AM 8:26 PM
Waning Gibbous, 72% visible
METAR KSCH 242150Z 27006KT 15SM SCT250 30/12 A2995
Pressure 29.95 in
Visibility 15.0 miles
Clouds Scattered Clouds 25000 ft
Heat Index 83 °F
Dew Point 59 °F
Humidity 44%
Rainfall 0.00 in
Snow Depth Not available.
5:43 AM 8:26 PM
Waning Gibbous, 72% visible
METAR KSCH 242150Z 27006KT 15SM SCT250 30/12 A2995

10-Day Weather Forecast

Almanac

Astronomy

Jul. 24, 2016 Rise Set
Actual Time
Civil Twilight
Nautical Twilight
Astronomical Twilight
Moon
Length of Visible Light
Length of Day
Tomorrow will be .
, % of the Moon is Illuminated

Today's Extremes

State Highs State Lows

Community

WunderPhotos

Upload Photos

1,927,195 photos uploaded!

WunderBlog® & News

Nearby

Air Quality

  Air Quality AQ Index Pollutant
Not available.

Snow Depth

Station Depth Elevation

Earthquake Activity

City Distance Mag. Time & Date
Minimum magnitude displayed is 2.5.

Coastal Water Temperatures

Place Temperature

Stations

Nearby Weather Stations

Station Location Temp. Windchill Dew Point Humidity Wind Precip. Elev Updated Type
                   

Watches & Warnings

There are currently no watches in effect.